Time;durP1;ratioP1;P1;durP2;ratioP2;P2;SDS_P1;SDS_P2;PMS_P1;PMS_P2;Temp;Humidity;BMP_temperature;BMP_pressure;BME280_temperature;BME280_humidity;BME280_pressure;Samples;Min_cycle;Max_cycle;Signal;HPM_P1;HPM_P2
2021/06/24 00:02:14;;;;;;;;;;;16.80;1.00;;;;;;5112149;28;19912;-63
2021/06/24 00:04:39;;;;;;;;;;;16.80;1.00;;;;;;5072220;28;20337;-63
2021/06/24 00:07:05;;;;;;;;;;;16.80;1.00;;;;;;5070105;28;20000;-63
2021/06/24 00:09:30;;;;;;;;;;;16.80;1.00;;;;;;5091060;28;19920;-63
2021/06/24 00:11:56;;;;;;;;;;;16.80;1.00;;;;;;5092051;28;19916;-63
2021/06/24 00:14:21;;;;;;;;;;;16.70;1.00;;;;;;5091809;28;19912;-63
2021/06/24 00:16:47;;;;;;;;;;;16.70;1.00;;;;;;5091122;28;19920;-63
2021/06/24 00:19:12;;;;;;;;;;;16.70;1.00;;;;;;5072933;28;19908;-63
2021/06/24 00:21:38;;;;;;;;;;;16.60;1.00;;;;;;5090248;28;19916;-61
2021/06/24 00:24:04;;;;;;;;;;;16.60;1.00;;;;;;5092025;28;19908;-63
2021/06/24 00:26:29;;;;;;;;;;;16.50;1.00;;;;;;5091664;28;19908;-63
2021/06/24 00:28:55;;;;;;;;;;;16.60;1.00;;;;;;5091071;28;19908;-63
2021/06/24 00:31:20;;;;;;;;;;;16.60;1.00;;;;;;5091004;28;19915;-63
2021/06/24 00:33:46;;;;;;;;;;;16.60;1.00;;;;;;5092253;28;19912;-63
2021/06/24 00:36:11;;;;;;;;;;;16.70;1.00;;;;;;5090289;28;20016;-63
2021/06/24 00:38:37;;;;;;;;;;;16.60;1.00;;;;;;5090951;28;19912;-63
2021/06/24 00:41:02;;;;;;;;;;;16.60;1.00;;;;;;5091098;28;19923;-63
2021/06/24 00:43:28;;;;;;;;;;;16.70;1.00;;;;;;5091574;28;19916;-62
2021/06/24 00:45:54;;;;;;;;;;;16.70;1.00;;;;;;5084861;28;20015;-63
2021/06/24 00:48:20;;;;;;;;;;;16.70;1.00;;;;;;5102904;28;20053;-63
2021/06/24 00:50:46;;;;;;;;;;;16.70;1.00;;;;;;5110324;28;19908;-63
2021/06/24 00:53:12;;;;;;;;;;;16.80;1.00;;;;;;5092642;28;19915;-63
2021/06/24 00:55:41;;;;;;;;;;;16.80;1.00;;;;;;5111403;28;20305;-61
2021/06/24 00:58:14;;;;;;;;;;;16.80;1.00;;;;;;5110586;28;20294;-63
2021/06/24 01:00:41;;;;;;;;;;;16.80;1.00;;;;;;5110712;28;20376;-63
2021/06/24 01:03:07;;;;;;;;;;;16.80;1.00;;;;;;5104024;28;20309;-62
2021/06/24 01:05:34;;;;;;;;;;;16.70;1.00;;;;;;5090302;28;20022;-61
2021/06/24 01:07:59;;;;;;;;;;;16.70;1.00;;;;;;5090080;28;19908;-63
2021/06/24 01:10:25;;;;;;;;;;;16.70;1.00;;;;;;5090943;28;19916;-63
2021/06/24 01:12:51;;;;;;;;;;;16.70;1.00;;;;;;5090878;28;20308;-61
2021/06/24 01:15:16;;;;;;;;;;;16.70;1.00;;;;;;5090667;28;19908;-63
2021/06/24 01:17:42;;;;;;;;;;;16.70;1.00;;;;;;5089780;28;20238;-63
2021/06/24 01:20:07;;;;;;;;;;;16.70;1.00;;;;;;5089807;28;19994;-63
2021/06/24 01:22:33;;;;;;;;;;;16.60;1.00;;;;;;5090185;28;19908;-63
2021/06/24 01:24:59;;;;;;;;;;;16.60;1.00;;;;;;5090451;28;19915;-62
2021/06/24 01:27:24;;;;;;;;;;;16.60;1.00;;;;;;5089824;28;20023;-62
2021/06/24 01:29:50;;;;;;;;;;;16.60;1.00;;;;;;5090650;28;19963;-62
2021/06/24 01:32:16;;;;;;;;;;;16.50;1.00;;;;;;5089628;28;20375;-62
2021/06/24 01:34:42;;;;;;;;;;;16.60;1.00;;;;;;5090508;28;20303;-62
2021/06/24 01:37:08;;;;;;;;;;;16.50;1.00;;;;;;5088313;28;19934;-63
2021/06/24 01:39:33;;;;;;;;;;;16.40;1.00;;;;;;5089717;28;19988;-63
2021/06/24 01:41:59;;;;;;;;;;;16.40;1.00;;;;;;5089647;28;20001;-60
2021/06/24 01:44:43;;;;;;;;;;;16.30;1.00;;;;;;5090523;28;19934;-63
2021/06/24 01:47:10;;;;;;;;;;;16.30;1.00;;;;;;5089328;28;20344;-62
2021/06/24 01:49:35;;;;;;;;;;;16.30;1.00;;;;;;5089794;28;19912;-63
2021/06/24 01:52:01;;;;;;;;;;;16.20;1.00;;;;;;5088874;28;19984;-63
2021/06/24 01:54:27;;;;;;;;;;;16.10;1.00;;;;;;5089813;28;19916;-63
2021/06/24 01:56:52;;;;;;;;;;;16.10;1.00;;;;;;5089898;28;19908;-62
2021/06/24 01:59:18;;;;;;;;;;;16.10;1.00;;;;;;5089033;28;19948;-63
2021/06/24 02:01:44;;;;;;;;;;;16.00;1.00;;;;;;5089356;28;19912;-63
2021/06/24 02:04:09;;;;;;;;;;;16.00;1.00;;;;;;5089940;28;19918;-61
2021/06/24 02:06:35;;;;;;;;;;;16.00;1.00;;;;;;5088696;28;19908;-62
2021/06/24 02:09:00;;;;;;;;;;;16.00;1.00;;;;;;5097297;28;20287;-63
2021/06/24 02:11:26;;;;;;;;;;;16.00;1.00;;;;;;5103014;28;19911;-60
2021/06/24 02:13:51;;;;;;;;;;;16.00;1.00;;;;;;5110468;28;19927;-60
2021/06/24 02:16:17;;;;;;;;;;;15.90;1.00;;;;;;5109756;28;20422;-63
2021/06/24 02:18:42;;;;;;;;;;;15.90;1.00;;;;;;5105311;28;19908;-61
2021/06/24 02:21:08;;;;;;;;;;;15.90;1.00;;;;;;5088316;28;20350;-61
2021/06/24 02:23:33;;;;;;;;;;;15.90;1.00;;;;;;5089962;28;20478;-61
2021/06/24 02:25:58;;;;;;;;;;;15.90;1.00;;;;;;5089269;28;19951;-62
2021/06/24 02:28:24;;;;;;;;;;;15.90;1.00;;;;;;5089337;28;19914;-60
2021/06/24 02:30:49;;;;;;;;;;;16.00;1.00;;;;;;5088586;28;20284;-63
2021/06/24 02:33:17;;;;;;;;;;;16.10;1.00;;;;;;5089466;28;19908;-61
2021/06/24 02:35:46;;;;;;;;;;;16.20;1.00;;;;;;5088384;28;19908;-61
2021/06/24 02:38:11;;;;;;;;;;;16.30;1.00;;;;;;5088745;28;19908;-61
2021/06/24 02:40:37;;;;;;;;;;;16.30;1.00;;;;;;5089209;28;19939;-63
2021/06/24 02:43:03;;;;;;;;;;;16.40;1.00;;;;;;5089689;28;19908;-62
2021/06/24 02:45:28;;;;;;;;;;;16.40;1.00;;;;;;5088572;28;19915;-63
2021/06/24 02:47:54;;;;;;;;;;;16.30;1.00;;;;;;5089535;28;19908;-61
2021/06/24 02:50:20;;;;;;;;;;;16.30;1.00;;;;;;5090658;28;19912;-61
2021/06/24 02:52:45;;;;;;;;;;;16.20;1.00;;;;;;5089748;28;20264;-62
2021/06/24 02:55:11;;;;;;;;;;;16.20;1.00;;;;;;5089868;28;19918;-63
2021/06/24 02:57:36;;;;;;;;;;;16.10;1.00;;;;;;5090013;28;20676;-62
2021/06/24 03:00:06;;;;;;;;;;;16.10;1.00;;;;;;5089886;28;19912;-61
2021/06/24 03:02:32;;;;;;;;;;;16.10;1.00;;;;;;5090095;28;19916;-63
2021/06/24 03:04:57;;;;;;;;;;;16.00;1.00;;;;;;5090390;28;19912;-61
2021/06/24 03:07:23;;;;;;;;;;;16.00;1.00;;;;;;5088137;28;20077;-63
2021/06/24 03:09:48;;;;;;;;;;;16.00;1.00;;;;;;5089894;28;20011;-63
2021/06/24 03:12:14;;;;;;;;;;;16.10;1.00;;;;;;5088995;28;19915;-63
2021/06/24 03:14:39;;;;;;;;;;;16.10;1.00;;;;;;5089308;28;20016;-62
2021/06/24 03:17:05;;;;;;;;;;;16.00;1.00;;;;;;5088403;28;20352;-63
2021/06/24 03:19:30;;;;;;;;;;;16.00;1.00;;;;;;5088427;28;19930;-63
2021/06/24 03:21:56;;;;;;;;;;;16.00;1.00;;;;;;5086940;28;19928;-63
2021/06/24 03:24:21;;;;;;;;;;;15.90;1.00;;;;;;5089007;28;19912;-63
2021/06/24 03:26:47;;;;;;;;;;;15.90;1.00;;;;;;5088681;28;19951;-64
2021/06/24 03:29:12;;;;;;;;;;;15.90;1.00;;;;;;5087779;28;19919;-63
2021/06/24 03:31:38;;;;;;;;;;;15.90;1.00;;;;;;5088296;28;19912;-62
2021/06/24 03:34:03;;;;;;;;;;;15.80;1.00;;;;;;5088899;28;20376;-61
2021/06/24 03:36:29;;;;;;;;;;;15.80;1.00;;;;;;5087456;28;20380;-64
2021/06/24 03:38:54;;;;;;;;;;;15.90;1.00;;;;;;5088225;28;19953;-63
2021/06/24 03:41:24;;;;;;;;;;;15.90;1.00;;;;;;5087894;28;20014;-64
2021/06/24 03:43:51;;;;;;;;;;;15.90;1.00;;;;;;5088939;28;19909;-63
2021/06/24 03:46:16;;;;;;;;;;;16.00;1.00;;;;;;5099754;28;19908;-64
2021/06/24 03:48:42;;;;;;;;;;;16.10;1.00;;;;;;5108641;28;19908;-64
2021/06/24 03:51:08;;;;;;;;;;;16.20;1.00;;;;;;5106988;28;19912;-63
2021/06/24 03:53:34;;;;;;;;;;;16.30;1.00;;;;;;5109312;28;19908;-62
2021/06/24 03:56:00;;;;;;;;;;;16.50;1.00;;;;;;5110390;28;19908;-64
2021/06/24 03:58:25;;;;;;;;;;;16.60;1.00;;;;;;5112088;28;19915;-63
2021/06/24 04:00:51;;;;;;;;;;;16.90;1.00;;;;;;5112185;28;19984;-64
2021/06/24 04:03:16;;;;;;;;;;;17.20;1.00;;;;;;5103902;28;19912;-62
2021/06/24 04:05:43;;;;;;;;;;;17.40;1.00;;;;;;5090241;28;19912;-60
2021/06/24 04:08:09;;;;;;;;;;;17.60;1.00;;;;;;5099780;28;19912;-62
2021/06/24 04:10:35;;;;;;;;;;;17.80;1.00;;;;;;5112362;28;19916;-62
2021/06/24 04:13:01;;;;;;;;;;;18.10;1.00;;;;;;5112757;28;19992;-64
2021/06/24 04:15:27;;;;;;;;;;;18.40;1.00;;;;;;5112110;28;20163;-62
2021/06/24 04:17:53;;;;;;;;;;;18.70;1.00;;;;;;5111858;28;20000;-64
2021/06/24 04:20:19;;;;;;;;;;;19.10;1.00;;;;;;5092919;28;20357;-62
2021/06/24 04:22:45;;;;;;;;;;;19.40;1.00;;;;;;5086981;28;19924;-62
2021/06/24 04:25:11;;;;;;;;;;;19.60;99.90;;;;;;5057506;28;20000;-62
2021/06/24 04:27:37;;;;;;;;;;;19.60;99.90;;;;;;5075876;28;19959;-62
2021/06/24 04:30:04;;;;;;;;;;;19.60;99.90;;;;;;5089753;28;20382;-62
2021/06/24 04:32:29;;;;;;;;;;;19.30;99.90;;;;;;5091242;28;19984;-67
2021/06/24 04:34:55;;;;;;;;;;;19.00;99.90;;;;;;5075481;28;20133;-67
2021/06/24 04:37:20;;;;;;;;;;;18.80;1.00;;;;;;5068586;28;19909;-67
2021/06/24 04:39:46;;;;;;;;;;;18.80;1.00;;;;;;5074759;28;20255;-68
2021/06/24 04:42:11;;;;;;;;;;;19.40;99.90;;;;;;5091183;28;19952;-67
2021/06/24 04:44:37;;;;;;;;;;;19.60;1.00;;;;;;5091540;28;19951;-68
2021/06/24 04:47:03;;;;;;;;;;;20.20;1.00;;;;;;5098903;28;19935;-68
2021/06/24 04:49:29;;;;;;;;;;;21.20;1.00;;;;;;5104160;28;20000;-68
2021/06/24 04:51:54;;;;;;;;;;;21.90;99.90;;;;;;5110523;28;19912;-68
2021/06/24 04:54:20;;;;;;;;;;;22.40;1.00;;;;;;5112076;28;19908;-68
2021/06/24 04:56:45;;;;;;;;;;;23.40;99.90;;;;;;5111092;28;19919;-68
2021/06/24 04:59:11;;;;;;;;;;;24.20;1.00;;;;;;5111195;28;20000;-68
2021/06/24 05:01:36;;;;;;;;;;;25.10;1.00;;;;;;5110530;28;20003;-69
2021/06/24 05:04:02;;;;;;;;;;;25.50;1.00;;;;;;5096139;28;20326;-63
2021/06/24 05:06:27;;;;;;;;;;;25.50;1.00;;;;;;5089288;28;19973;-63
2021/06/24 05:08:53;;;;;;;;;;;25.30;1.00;;;;;;5100054;28;20007;-65
2021/06/24 05:11:18;;;;;;;;;;;25.20;1.00;;;;;;5110845;28;19907;-64
2021/06/24 05:13:44;;;;;;;;;;;25.30;1.00;;;;;;5111112;28;19908;-65
2021/06/24 05:16:10;;;;;;;;;;;25.10;99.90;;;;;;5107527;28;20048;-65
2021/06/24 05:18:35;;;;;;;;;;;25.10;99.90;;;;;;5089822;28;19955;-62
2021/06/24 05:21:01;;;;;;;;;;;25.50;99.90;;;;;;5089189;28;19912;-62
2021/06/24 05:23:27;;;;;;;;;;;26.20;99.90;;;;;;5090300;28;20089;-65
2021/06/24 05:25:53;;;;;;;;;;;27.10;99.90;;;;;;5090560;28;20247;-65
2021/06/24 05:28:18;;;;;;;;;;;27.50;99.90;;;;;;5087562;28;20017;-64
2021/06/24 05:30:45;;;;;;;;;;;27.30;99.90;;;;;;5087319;28;19908;-64
2021/06/24 05:33:11;;;;;;;;;;;26.10;99.90;;;;;;5087625;28;19954;-60
2021/06/24 05:35:37;;;;;;;;;;;24.50;99.90;;;;;;5086277;28;19940;-64
2021/06/24 05:38:02;;;;;;;;;;;23.60;99.90;;;;;;5087076;28;19935;-63
2021/06/24 05:40:28;;;;;;;;;;;23.60;99.90;;;;;;5087424;28;19923;-63
2021/06/24 05:42:53;;;;;;;;;;;24.00;99.90;;;;;;5078821;28;20352;-64
2021/06/24 05:45:25;;;;;;;;;;;24.40;99.90;;;;;;5082159;28;19955;-63
2021/06/24 05:47:51;;;;;;;;;;;25.50;99.90;;;;;;5078145;28;19916;-62
2021/06/24 05:50:16;;;;;;;;;;;26.80;99.90;;;;;;5066929;28;20407;-63
2021/06/24 05:52:42;;;;;;;;;;;27.90;99.90;;;;;;5066949;28;19915;-63
2021/06/24 05:55:07;;;;;;;;;;;29.50;99.90;;;;;;5048913;28;19916;-64
2021/06/24 05:57:33;;;;;;;;;;;30.70;99.90;;;;;;5068530;28;19912;-63
2021/06/24 05:59:59;;;;;;;;;;;31.70;99.90;;;;;;5068938;28;19956;-64
2021/06/24 06:02:24;;;;;;;;;;;32.10;99.90;;;;;;5085468;28;19969;-63
2021/06/24 06:04:50;;;;;;;;;;;31.60;99.90;;;;;;5066718;28;19986;-63
2021/06/24 06:07:15;;;;;;;;;;;30.40;99.90;;;;;;5068393;28;20239;-63
2021/06/24 06:09:41;;;;;;;;;;;28.90;99.90;;;;;;5107662;28;19955;-62
2021/06/24 06:12:07;;;;;;;;;;;27.80;99.90;;;;;;5108096;28;19952;-62
2021/06/24 06:14:32;;;;;;;;;;;26.80;99.90;;;;;;5107939;28;20368;-64
2021/06/24 06:16:58;;;;;;;;;;;26.20;99.90;;;;;;5080136;28;19912;-63
2021/06/24 06:19:23;;;;;;;;;;;26.00;99.90;;;;;;5075857;28;19909;-63
2021/06/24 06:21:49;;;;;;;;;;;27.10;99.90;;;;;;5085302;28;20292;-64
2021/06/24 06:24:14;;;;;;;;;;;28.60;99.90;;;;;;5099141;28;19908;-64
2021/06/24 06:26:40;;;;;;;;;;;30.20;99.90;;;;;;5103766;28;20522;-64
2021/06/24 06:29:05;;;;;;;;;;;32.00;99.90;;;;;;5066591;28;19912;-64
2021/06/24 06:31:32;;;;;;;;;;;33.70;99.90;;;;;;5065487;28;19959;-64
2021/06/24 06:33:58;;;;;;;;;;;33.80;99.90;;;;;;5069793;28;19920;-64
2021/06/24 06:36:23;;;;;;;;;;;35.10;99.90;;;;;;5085830;28;19927;-63
2021/06/24 06:38:49;;;;;;;;;;;36.00;99.90;;;;;;5087468;28;19908;-63
2021/06/24 06:41:14;;;;;;;;;;;36.00;99.90;;;;;;5089347;28;20015;-64
2021/06/24 06:43:40;;;;;;;;;;;36.10;99.90;;;;;;5089206;28;19912;-64
2021/06/24 06:46:05;;;;;;;;;;;35.80;99.90;;;;;;5080739;28;20282;-64
2021/06/24 06:48:31;;;;;;;;;;;34.90;99.90;;;;;;5068216;28;20377;-64
2021/06/24 06:50:56;;;;;;;;;;;34.20;99.90;;;;;;5067625;28;20095;-63
2021/06/24 06:53:23;;;;;;;;;;;34.70;99.90;;;;;;5068743;28;20009;-63
2021/06/24 06:55:48;;;;;;;;;;;35.70;99.90;;;;;;5075821;28;19915;-64
2021/06/24 06:58:14;;;;;;;;;;;36.60;99.90;;;;;;5088923;28;19916;-64
2021/06/24 07:00:40;;;;;;;;;;;38.20;99.90;;;;;;5082838;28;19939;-64
2021/06/24 07:03:05;;;;;;;;;;;39.60;99.90;;;;;;5076587;28;19951;-62
2021/06/24 07:05:31;;;;;;;;;;;40.00;99.90;;;;;;5088271;28;20325;-63
2021/06/24 07:07:57;;;;;;;;;;;39.70;99.90;;;;;;5085009;28;20042;-63
2021/06/24 07:10:22;;;;;;;;;;;39.70;99.90;;;;;;5109262;28;20007;-63
2021/06/24 07:12:48;;;;;;;;;;;40.10;99.90;;;;;;5109317;28;19943;-63
2021/06/24 07:15:14;;;;;;;;;;;40.70;99.90;;;;;;5108875;28;19908;-63
2021/06/24 07:17:40;;;;;;;;;;;41.20;99.90;;;;;;5092196;28;19912;-63
2021/06/24 07:20:06;;;;;;;;;;;41.30;98.10;;;;;;5087382;28;20372;-63
2021/06/24 07:22:31;;;;;;;;;;;41.30;94.70;;;;;;5080324;28;19920;-63
2021/06/24 07:24:57;;;;;;;;;;;41.50;90.00;;;;;;5068185;28;19966;-63
2021/06/24 07:27:22;;;;;;;;;;;41.60;80.00;;;;;;5068705;28;19913;-63
2021/06/24 07:29:48;;;;;;;;;;;42.10;74.10;;;;;;5068474;28;19908;-63
2021/06/24 07:32:14;;;;;;;;;;;42.40;66.20;;;;;;5092434;28;19951;-63
2021/06/24 07:34:39;;;;;;;;;;;42.60;59.20;;;;;;5093361;28;19955;-63
2021/06/24 07:37:04;;;;;;;;;;;42.80;54.00;;;;;;5091872;28;19977;-63
2021/06/24 07:39:30;;;;;;;;;;;42.60;48.20;;;;;;5092360;28;19920;-64
2021/06/24 07:41:56;;;;;;;;;;;41.00;40.60;;;;;;5092424;28;20078;-64
2021/06/24 07:44:21;;;;;;;;;;;40.60;38.20;;;;;;5093031;28;19923;-62
2021/06/24 07:46:47;;;;;;;;;;;40.60;35.00;;;;;;5100241;28;20012;-63
2021/06/24 07:49:12;;;;;;;;;;;39.20;31.90;;;;;;5100910;28;19911;-62
2021/06/24 07:51:38;;;;;;;;;;;39.30;31.60;;;;;;5111385;28;19984;-63
2021/06/24 07:54:04;;;;;;;;;;;39.50;29.90;;;;;;5112999;28;20008;-63
2021/06/24 07:56:29;;;;;;;;;;;38.30;28.40;;;;;;5113290;28;20081;-63
2021/06/24 07:58:55;;;;;;;;;;;37.70;28.80;;;;;;5112160;28;19911;-64
2021/06/24 08:01:20;;;;;;;;;;;38.20;29.40;;;;;;5112148;28;19919;-64
2021/06/24 08:03:46;;;;;;;;;;;39.50;31.10;;;;;;5099742;28;19918;-63
2021/06/24 08:06:11;;;;;;;;;;;40.70;31.00;;;;;;5091550;28;19947;-64
2021/06/24 08:08:37;;;;;;;;;;;41.10;31.30;;;;;;5104778;28;20299;-62
2021/06/24 08:11:03;;;;;;;;;;;40.60;27.40;;;;;;5112672;28;19972;-64
2021/06/24 08:13:29;;;;;;;;;;;39.20;26.30;;;;;;5112506;28;19998;-64
2021/06/24 08:15:55;;;;;;;;;;;38.30;25.00;;;;;;5110804;28;19912;-63
2021/06/24 08:18:20;;;;;;;;;;;39.00;25.80;;;;;;5091976;28;19985;-63
2021/06/24 08:20:47;;;;;;;;;;;39.20;25.00;;;;;;5090943;28;19920;-63
2021/06/24 08:23:12;;;;;;;;;;;37.60;23.10;;;;;;5092179;28;19908;-63
2021/06/24 08:25:38;;;;;;;;;;;35.30;21.60;;;;;;5091394;28;19973;-63
2021/06/24 08:28:04;;;;;;;;;;;32.90;32.40;;;;;;5091137;28;19912;-62
2021/06/24 08:30:30;;;;;;;;;;;31.80;25.00;;;;;;5091834;28;19981;-62
2021/06/24 08:32:55;;;;;;;;;;;31.30;28.50;;;;;;5092281;28;20002;-63
2021/06/24 08:35:21;;;;;;;;;;;31.70;32.50;;;;;;5091089;28;19935;-64
2021/06/24 08:37:47;;;;;;;;;;;32.30;36.10;;;;;;5091072;28;20010;-64
2021/06/24 08:40:14;;;;;;;;;;;32.30;37.00;;;;;;5091502;28;19912;-64
2021/06/24 08:42:40;;;;;;;;;;;32.20;39.40;;;;;;5090822;28;19920;-64
2021/06/24 08:45:06;;;;;;;;;;;32.10;41.20;;;;;;5091626;28;20308;-63
2021/06/24 08:47:32;;;;;;;;;;;31.50;41.60;;;;;;5070242;28;19915;-62
2021/06/24 08:49:59;;;;;;;;;;;31.80;43.80;;;;;;5070864;28;19913;-63
2021/06/24 08:52:25;;;;;;;;;;;33.70;47.40;;;;;;5070744;28;19916;-64
2021/06/24 08:54:50;;;;;;;;;;;35.70;47.50;;;;;;5075074;28;19912;-64
2021/06/24 08:57:16;;;;;;;;;;;37.30;47.50;;;;;;5090991;28;19909;-64
2021/06/24 08:59:45;;;;;;;;;;;38.70;47.80;;;;;;5091713;28;20334;-63
2021/06/24 09:02:13;;;;;;;;;;;39.50;45.40;;;;;;5090821;28;19916;-64
2021/06/24 09:04:42;;;;;;;;;;;39.50;43.10;;;;;;5071068;28;19918;-63
2021/06/24 09:07:12;;;;;;;;;;;39.20;41.50;;;;;;5069834;28;19920;-62
2021/06/24 09:09:47;;;;;;;;;;;38.60;38.50;;;;;;5111741;28;20279;-62
2021/06/24 09:12:13;;;;;;;;;;;38.10;36.60;;;;;;5111528;28;19961;-62
2021/06/24 09:14:46;;;;;;;;;;;37.20;33.30;;;;;;5112086;28;19911;-64
2021/06/24 09:17:12;;;;;;;;;;;36.70;32.80;;;;;;5098924;28;20375;-63
2021/06/24 09:19:42;;;;;;;;;;;36.50;31.80;;;;;;5090347;28;20391;-63
2021/06/24 09:22:10;;;;;;;;;;;36.30;30.20;;;;;;5091781;28;20006;-63
2021/06/24 09:24:41;;;;;;;;;;;35.10;28.90;;;;;;5100907;28;20019;-64
2021/06/24 09:27:12;;;;;;;;;;;33.30;27.80;;;;;;5090385;28;19912;-62
2021/06/24 09:29:38;;;;;;;;;;;31.90;27.80;;;;;;5090223;28;19912;-63
2021/06/24 09:32:03;;;;;;;;;;;31.00;29.30;;;;;;5090220;28;20018;-61
2021/06/24 09:34:29;;;;;;;;;;;;;;;;;;5090994;28;19953;-63
2021/06/24 09:37:03;;;;;;;;;;;29.70;25.30;;;;;;5089066;28;19908;-64
2021/06/24 09:39:29;;;;;;;;;;;30.60;39.10;;;;;;5090421;28;19916;-63
2021/06/24 09:42:05;;;;;;;;;;;33.20;43.60;;;;;;5090156;28;20269;-62
2021/06/24 09:44:31;;;;;;;;;;;35.50;43.80;;;;;;5091091;28;20283;-63
2021/06/24 09:46:58;;;;;;;;;;;37.70;55.90;;;;;;5090233;28;19912;-63
2021/06/24 09:49:24;;;;;;;;;;;39.20;42.60;;;;;;5089806;28;19908;-62
2021/06/24 09:51:52;;;;;;;;;;;41.30;42.60;;;;;;5088875;28;20288;-63
2021/06/24 09:54:18;;;;;;;;;;;43.60;42.20;;;;;;5089975;28;19956;-63
2021/06/24 09:56:45;;;;;;;;;;;43.80;35.60;;;;;;5071918;28;19977;-63
2021/06/24 09:59:11;;;;;;;;;;;43.80;30.20;;;;;;5089429;28;19916;-63
2021/06/24 10:01:42;;;;;;;;;;;43.90;26.00;;;;;;5089817;28;19938;-63
2021/06/24 10:04:28;;;;;;;;;;;44.40;22.80;;;;;;5089611;28;19916;-63
2021/06/24 10:06:55;;;;;;;;;;;44.40;17.70;;;;;;5070689;28;19909;-62
2021/06/24 10:09:21;;;;;;;;;;;44.20;13.60;;;;;;5099856;28;19920;-62
2021/06/24 10:11:47;;;;;;;;;;;42.60;7.90;;;;;;5089045;28;19928;-63
2021/06/24 10:14:15;;;;;;;;;;;41.80;5.60;;;;;;5089850;28;20268;-63
2021/06/24 10:16:42;;;;;;;;;;;40.30;2.50;;;;;;5089574;28;19912;-62
2021/06/24 10:19:08;;;;;;;;;;;38.90;2.70;;;;;;5088842;28;19908;-63
2021/06/24 10:21:36;;;;;;;;;;;39.10;3.30;;;;;;5088057;28;19923;-63
2021/06/24 10:24:07;;;;;;;;;;;38.80;2.50;;;;;;5069337;28;20022;-65
2021/06/24 10:26:35;;;;;;;;;;;37.40;2.00;;;;;;5069062;28;19912;-62
2021/06/24 10:29:27;;;;;;;;;;;38.60;3.90;;;;;;5068640;28;20349;-63
2021/06/24 10:31:55;;;;;;;;;;;39.80;4.20;;;;;;5070826;28;19912;-68
2021/06/24 10:34:42;;;;;;;;;;;39.80;2.00;;;;;;5073276;28;20131;-62
2021/06/24 10:37:09;;;;;;;;;;;40.60;2.40;;;;;;5071782;28;19952;-64
2021/06/24 10:39:35;;;;;;;;;;;40.50;2.10;;;;;;5088993;28;20312;-64
2021/06/24 10:42:04;;;;;;;;;;;41.80;1.70;;;;;;5080020;28;20376;-67
2021/06/24 10:44:41;;;;;;;;;;;42.60;1.10;;;;;;5067420;28;19966;-65
2021/06/24 10:47:07;;;;;;;;;;;39.40;1.00;;;;;;5093851;28;19913;-64
2021/06/24 10:49:32;;;;;;;;;;;36.40;1.00;;;;;;5088634;28;20360;-66
2021/06/24 10:52:24;;;;;;;;;;;35.90;1.00;;;;;;5066732;28;19912;-64
2021/06/24 10:54:50;;;;;;;;;;;37.40;1.00;;;;;;5068393;28;19909;-64
2021/06/24 10:57:29;;;;;;;;;;;38.90;1.00;;;;;;5067537;28;19995;-63
2021/06/24 10:59:55;;;;;;;;;;;38.40;1.00;;;;;;5071974;28;19912;-66
2021/06/24 11:02:21;;;;;;;;;;;38.90;1.00;;;;;;5068295;28;19970;-64
2021/06/24 11:04:47;;;;;;;;;;;39.10;1.00;;;;;;5068345;28;19908;-65
2021/06/24 11:07:19;;;;;;;;;;;39.60;1.00;;;;;;5068295;28;19919;-65
2021/06/24 11:10:04;;;;;;;;;;;39.60;1.00;;;;;;5108614;28;19915;-64
2021/06/24 11:12:48;;;;;;;;;;;39.90;1.00;;;;;;5105811;28;19920;-64
2021/06/24 11:15:33;;;;;;;;;;;39.70;1.00;;;;;;5083710;28;20129;-64
2021/06/24 11:17:59;;;;;;;;;;;39.20;1.00;;;;;;5096580;28;20254;-64
2021/06/24 11:20:29;;;;;;;;;;;39.10;1.00;;;;;;5087314;28;19923;-63
2021/06/24 11:22:54;;;;;;;;;;;38.60;1.00;;;;;;5077534;28;20277;-63
2021/06/24 11:25:20;;;;;;;;;;;38.50;1.00;;;;;;5069140;28;19912;-63
2021/06/24 11:27:46;;;;;;;;;;;37.20;1.00;;;;;;5067947;28;19940;-63
2021/06/24 11:30:12;;;;;;;;;;;36.40;1.00;;;;;;5049634;28;19948;-64
2021/06/24 11:32:42;;;;;;;;;;;35.50;1.00;;;;;;5085803;28;20011;-63
2021/06/24 11:35:30;;;;;;;;;;;35.10;1.00;;;;;;5087971;28;20115;-62
2021/06/24 11:37:59;;;;;;;;;;;34.40;1.00;;;;;;5087516;28;19919;-62
2021/06/24 11:40:25;;;;;;;;;;;33.60;1.00;;;;;;5088394;28;19918;-64
2021/06/24 11:42:53;;;;;;;;;;;33.50;1.00;;;;;;5088948;28;20002;-63
2021/06/24 11:45:19;;;;;;;;;;;33.60;1.00;;;;;;5087552;28;19920;-64
2021/06/24 11:47:47;;;;;;;;;;;33.80;1.00;;;;;;5077539;28;19916;-63
2021/06/24 12:03:59;;;;;;;;;;;31.60;1.00;;;;;;5068450;28;19912;-63
2021/06/24 12:06:25;;;;;;;;;;;30.70;1.00;;;;;;5066295;28;19940;-63
2021/06/24 12:08:51;;;;;;;;;;;;;;;;;;5096987;28;20000;-63
2021/06/24 12:11:16;;;;;;;;;;;29.40;99.90;;;;;;5108607;28;20079;-63
2021/06/24 12:13:43;;;;;;;;;;;28.20;1.00;;;;;;5108989;28;20384;-65
2021/06/24 12:16:12;;;;;;;;;;;27.70;1.80;;;;;;5090026;28;19912;-63
2021/06/24 12:18:41;;;;;;;;;;;27.40;4.00;;;;;;5074604;28;19958;-64
2021/06/24 12:21:11;;;;;;;;;;;27.50;7.10;;;;;;5090419;28;20328;-63
2021/06/24 12:23:42;;;;;;;;;;;27.50;9.00;;;;;;5100498;28;19926;-63
2021/06/24 12:26:08;;;;;;;;;;;27.20;10.90;;;;;;5110761;28;19988;-63
2021/06/24 12:28:34;;;;;;;;;;;27.00;13.40;;;;;;5111890;28;19987;-62
2021/06/24 12:30:59;;;;;;;;;;;27.00;17.40;;;;;;5111783;28;20324;-63
2021/06/24 12:33:27;;;;;;;;;;;27.00;20.10;;;;;;5112293;28;19973;-62
2021/06/24 12:35:53;;;;;;;;;;;26.80;23.60;;;;;;5110432;28;19919;-63
2021/06/24 12:38:20;;;;;;;;;;;26.80;26.50;;;;;;5111204;28;19911;-62
2021/06/24 12:40:47;;;;;;;;;;;26.60;29.30;;;;;;5112346;28;19920;-62
2021/06/24 12:43:17;;;;;;;;;;;26.60;32.10;;;;;;5112527;28;19908;-62
2021/06/24 12:45:44;;;;;;;;;;;26.70;35.30;;;;;;5105230;28;19954;-63
2021/06/24 12:48:24;;;;;;;;;;;26.80;37.40;;;;;;5076897;28;19969;-64
2021/06/24 12:50:50;;;;;;;;;;;26.80;39.30;;;;;;5069641;28;19912;-63
2021/06/24 12:53:15;;;;;;;;;;;26.90;41.10;;;;;;5071050;28;19995;-63
2021/06/24 12:55:48;;;;;;;;;;;27.00;44.70;;;;;;5070647;28;20311;-63
2021/06/24 12:58:16;;;;;;;;;;;27.10;47.70;;;;;;5070770;28;19985;-64
2021/06/24 13:00:51;;;;;;;;;;;27.20;48.20;;;;;;5070454;28;19912;-63
2021/06/24 13:03:30;;;;;;;;;;;27.40;47.90;;;;;;5070657;28;19913;-64
2021/06/24 13:06:10;;;;;;;;;;;27.70;48.60;;;;;;5051209;28;19912;-63
2021/06/24 13:08:36;;;;;;;;;;;27.20;48.90;;;;;;5095748;28;19907;-64
2021/06/24 13:11:10;;;;;;;;;;;27.50;51.20;;;;;;5111485;28;19920;-63
2021/06/24 13:13:35;;;;;;;;;;;27.50;51.80;;;;;;5111223;28;20252;-62
2021/06/24 13:16:01;;;;;;;;;;;27.90;52.60;;;;;;5102012;28;19927;-64
2021/06/24 13:18:46;;;;;;;;;;;28.40;51.60;;;;;;5089996;28;19938;-64
2021/06/24 13:21:12;;;;;;;;;;;28.10;52.20;;;;;;5089579;28;20304;-64
2021/06/24 13:23:37;;;;;;;;;;;28.50;52.50;;;;;;5091026;28;19912;-64
2021/06/24 13:26:14;;;;;;;;;;;28.80;51.80;;;;;;5089916;28;20288;-64
2021/06/24 13:28:40;;;;;;;;;;;28.60;50.70;;;;;;5089394;28;19912;-63
2021/06/24 13:31:07;;;;;;;;;;;27.90;49.00;;;;;;5089603;28;19908;-64
2021/06/24 13:33:36;;;;;;;;;;;27.50;49.60;;;;;;5090559;28;19912;-64
2021/06/24 13:36:17;;;;;;;;;;;27.40;50.90;;;;;;5088570;28;19970;-63
2021/06/24 13:38:59;;;;;;;;;;;27.20;51.50;;;;;;5089786;28;19908;-64
2021/06/24 13:41:26;;;;;;;;;;;27.10;51.70;;;;;;5089927;28;19985;-64
2021/06/24 13:44:04;;;;;;;;;;;26.60;51.90;;;;;;5090269;28;19915;-64
2021/06/24 13:46:30;;;;;;;;;;;26.40;53.40;;;;;;5094280;28;19908;-64
2021/06/24 13:48:55;;;;;;;;;;;26.30;54.40;;;;;;5098168;28;20037;-64
2021/06/24 13:51:21;;;;;;;;;;;26.30;53.80;;;;;;5089025;28;19909;-64
2021/06/24 13:53:46;;;;;;;;;;;26.30;53.20;;;;;;5090362;28;19932;-64
2021/06/24 13:56:12;;;;;;;;;;;26.40;54.90;;;;;;5071409;28;20001;-64
2021/06/24 13:58:37;;;;;;;;;;;26.60;57.60;;;;;;5089465;28;20323;-65
2021/06/24 14:01:03;;;;;;;;;;;26.70;57.40;;;;;;5089235;28;19978;-65
2021/06/24 14:03:28;;;;;;;;;;;26.80;57.90;;;;;;5089646;28;19930;-64
2021/06/24 14:05:54;;;;;;;;;;;26.80;58.80;;;;;;5088498;28;20415;-64
2021/06/24 14:08:19;;;;;;;;;;;26.80;60.10;;;;;;5088612;28;19912;-63
2021/06/24 14:10:45;;;;;;;;;;;26.60;61.80;;;;;;5089679;28;19935;-63
2021/06/24 14:13:10;;;;;;;;;;;26.50;61.00;;;;;;5090126;28;20044;-64
2021/06/24 14:15:36;;;;;;;;;;;26.60;63.40;;;;;;5089096;28;19950;-64
2021/06/24 14:18:02;;;;;;;;;;;26.60;63.70;;;;;;5088560;28;19969;-64
2021/06/24 14:20:28;;;;;;;;;;;26.70;65.70;;;;;;5088755;28;19919;-64
2021/06/24 14:22:53;;;;;;;;;;;26.90;68.90;;;;;;5089438;28;19909;-64
2021/06/24 14:25:18;;;;;;;;;;;27.10;69.10;;;;;;5089593;28;19999;-63
2021/06/24 14:27:44;;;;;;;;;;;27.00;70.00;;;;;;5089265;28;19908;-64
2021/06/24 14:30:10;;;;;;;;;;;27.20;72.10;;;;;;5089220;28;19912;-64
2021/06/24 14:32:35;;;;;;;;;;;27.20;72.90;;;;;;5089002;28;20002;-64
2021/06/24 14:35:01;;;;;;;;;;;27.40;74.10;;;;;;5089370;28;19968;-64
2021/06/24 14:37:27;;;;;;;;;;;27.80;75.80;;;;;;5088214;28;19916;-64